createdAt,value
2022-08-31T00:00:17.220Z,27.12
2022-08-31T00:01:37.292Z,27.09
2022-08-31T00:02:57.020Z,27.07
2022-08-31T00:04:03.133Z,27.04
2022-08-31T00:05:04.751Z,27.03
2022-08-31T00:06:06.346Z,27.02
2022-08-31T00:07:07.935Z,27.01
2022-08-31T00:08:09.411Z,26.99
2022-08-31T00:09:11.479Z,26.99
2022-08-31T00:10:18.707Z,27.00
2022-08-31T00:11:28.404Z,26.97
2022-08-31T00:12:30.651Z,26.96
2022-08-31T00:13:32.407Z,26.94
2022-08-31T00:14:33.926Z,26.95
2022-08-31T00:15:35.607Z,26.94
2022-08-31T00:16:38.334Z,26.92
2022-08-31T00:17:40.206Z,26.90
2022-08-31T00:18:41.884Z,26.88
2022-08-31T00:19:43.455Z,26.87
2022-08-31T00:20:45.118Z,26.87
2022-08-31T00:21:46.611Z,26.86
2022-08-31T00:22:48.116Z,26.84
2022-08-31T00:23:49.815Z,26.84
2022-08-31T00:24:51.331Z,26.83
2022-08-31T00:25:52.830Z,26.82
2022-08-31T00:26:54.611Z,26.82
2022-08-31T00:27:56.327Z,26.81
2022-08-31T00:28:57.848Z,26.81
2022-08-31T00:29:59.378Z,26.80
2022-08-31T00:31:00.918Z,26.79
2022-08-31T00:32:02.825Z,26.79
2022-08-31T00:33:04.693Z,26.78
2022-08-31T00:34:06.404Z,26.78
2022-08-31T00:35:08.137Z,26.78
2022-08-31T00:36:10.904Z,26.77
2022-08-31T00:37:12.425Z,26.78
2022-08-31T00:38:15.604Z,26.68
2022-08-31T00:39:17.883Z,26.77
2022-08-31T00:40:19.889Z,26.76
2022-08-31T00:41:22.222Z,26.76
2022-08-31T00:42:23.815Z,26.74
2022-08-31T00:43:34.623Z,26.74
2022-08-31T00:44:36.151Z,26.73
2022-08-31T00:45:37.756Z,26.71
2022-08-31T00:46:40.919Z,26.70
2022-08-31T00:47:42.928Z,26.68
2022-08-31T00:48:51.197Z,26.66
2022-08-31T00:49:52.886Z,26.65
2022-08-31T00:50:54.414Z,26.66
2022-08-31T00:52:04.048Z,26.64
2022-08-31T00:53:05.801Z,26.65
2022-08-31T00:54:07.570Z,26.64
2022-08-31T00:55:20.760Z,26.62
2022-08-31T00:56:22.299Z,26.63
2022-08-31T00:57:34.625Z,26.62
2022-08-31T00:58:36.287Z,26.62
2022-08-31T00:59:37.761Z,26.60
2022-08-31T01:00:40.332Z,26.60
2022-08-31T01:01:41.913Z,26.58
2022-08-31T01:02:43.748Z,26.59
2022-08-31T01:03:45.931Z,26.59
2022-08-31T01:04:47.574Z,26.58
2022-08-31T01:05:49.372Z,26.57
2022-08-31T01:06:51.351Z,26.58
2022-08-31T01:07:53.011Z,26.57
2022-08-31T01:08:54.899Z,26.58
2022-08-31T01:09:56.413Z,26.55
2022-08-31T01:10:58.199Z,26.56
2022-08-31T01:11:59.724Z,26.57
2022-08-31T01:13:01.291Z,26.55
2022-08-31T01:14:03.393Z,26.55
2022-08-31T01:15:05.166Z,26.54
2022-08-31T01:16:08.926Z,26.54
2022-08-31T01:17:10.666Z,26.53
2022-08-31T01:18:12.191Z,26.54
2022-08-31T01:19:17.819Z,26.53
2022-08-31T01:20:19.363Z,26.52
2022-08-31T01:21:28.344Z,26.53
2022-08-31T01:22:35.378Z,26.51
2022-08-31T01:23:38.809Z,26.48
2022-08-31T01:24:40.748Z,26.46
2022-08-31T01:25:43.019Z,26.44
2022-08-31T01:26:44.715Z,26.41
2022-08-31T01:27:57.929Z,26.40
2022-08-31T01:29:01.589Z,26.40
2022-08-31T01:30:04.922Z,26.41
2022-08-31T01:31:10.742Z,26.39
2022-08-31T01:32:13.128Z,26.40
2022-08-31T01:33:14.658Z,26.38
2022-08-31T01:34:16.199Z,26.39
2022-08-31T01:35:18.541Z,26.34
2022-08-31T01:36:20.085Z,26.35
2022-08-31T01:37:29.410Z,26.35
2022-08-31T01:38:31.844Z,26.35
2022-08-31T01:39:34.105Z,26.35
2022-08-31T01:40:36.790Z,26.36
2022-08-31T01:41:43.994Z,26.37
2022-08-31T01:42:45.500Z,26.36
2022-08-31T01:43:47.095Z,26.36
2022-08-31T01:44:48.620Z,26.37
2022-08-31T01:45:50.210Z,26.37
2022-08-31T01:46:51.959Z,26.38
2022-08-31T01:47:54.279Z,26.38
2022-08-31T01:48:55.784Z,26.38
2022-08-31T01:49:57.660Z,26.37
2022-08-31T01:50:59.421Z,26.37
2022-08-31T01:52:00.923Z,26.36
2022-08-31T01:53:02.514Z,26.37
2022-08-31T01:54:04.892Z,26.36
2022-08-31T01:55:06.901Z,26.37
2022-08-31T01:56:15.597Z,26.35
2022-08-31T01:57:17.782Z,26.35
2022-08-31T01:58:49.255Z,26.32
2022-08-31T02:00:09.830Z,26.32
2022-08-31T02:01:32.615Z,26.30
2022-08-31T02:02:35.003Z,26.30
2022-08-31T02:03:36.838Z,26.29
2022-08-31T02:04:38.382Z,26.27
2022-08-31T02:05:39.983Z,26.27
2022-08-31T02:06:42.466Z,26.26
2022-08-31T02:07:44.015Z,26.26
2022-08-31T02:08:45.607Z,26.24
2022-08-31T02:09:47.118Z,26.25
2022-08-31T02:10:50.808Z,26.23
2022-08-31T02:11:52.852Z,26.23
2022-08-31T02:12:54.663Z,26.23
2022-08-31T02:14:04.019Z,26.20
2022-08-31T02:15:05.819Z,26.21
2022-08-31T02:16:07.546Z,26.21
2022-08-31T02:17:09.183Z,26.17
2022-08-31T02:18:12.151Z,26.17
2022-08-31T02:19:13.957Z,26.16
2022-08-31T02:20:15.557Z,26.15
2022-08-31T02:21:17.194Z,26.14
2022-08-31T02:22:18.785Z,26.14
2022-08-31T02:23:20.317Z,26.14
2022-08-31T02:24:21.950Z,26.14
2022-08-31T02:25:23.458Z,26.13
2022-08-31T02:26:25.178Z,26.11
2022-08-31T02:27:26.930Z,26.11
2022-08-31T02:28:28.695Z,26.10
2022-08-31T02:29:30.321Z,26.10
2022-08-31T02:30:31.872Z,26.09
2022-08-31T02:31:33.481Z,26.09
2022-08-31T02:32:35.221Z,26.08
2022-08-31T02:33:36.728Z,26.07
2022-08-31T02:34:40.977Z,26.07
2022-08-31T02:35:43.395Z,26.06
2022-08-31T02:36:45.403Z,26.06
2022-08-31T02:37:47.360Z,26.06
2022-08-31T02:38:50.316Z,26.04
2022-08-31T02:39:53.171Z,26.04
2022-08-31T02:40:56.130Z,26.03
2022-08-31T02:42:52.364Z,26.01
2022-08-31T02:43:54.662Z,26.00
2022-08-31T02:44:56.967Z,25.99
2022-08-31T02:45:58.534Z,25.99
2022-08-31T02:47:04.753Z,25.99
2022-08-31T02:48:35.419Z,25.99
2022-08-31T02:49:37.363Z,25.97
2022-08-31T02:50:40.048Z,25.96
2022-08-31T02:51:41.749Z,25.95
2022-08-31T02:52:45.076Z,25.95
2022-08-31T02:53:46.687Z,25.95
2022-08-31T02:54:48.242Z,25.95
2022-08-31T02:55:49.754Z,25.93
2022-08-31T02:56:51.292Z,25.94
2022-08-31T02:57:53.095Z,25.92
2022-08-31T02:58:55.618Z,25.93
2022-08-31T02:59:58.930Z,25.93
2022-08-31T03:01:02.719Z,25.93
2022-08-31T03:02:06.421Z,25.92
2022-08-31T03:03:10.722Z,25.91
2022-08-31T03:04:12.419Z,25.91
2022-08-31T03:05:14.043Z,25.90
2022-08-31T03:06:16.146Z,25.90
2022-08-31T03:07:17.775Z,25.89
2022-08-31T03:08:19.451Z,25.89
2022-08-31T03:09:24.321Z,25.88
2022-08-31T03:10:25.883Z,25.87
2022-08-31T03:11:28.605Z,25.88
2022-08-31T03:12:30.174Z,25.87
2022-08-31T03:13:31.701Z,25.86
2022-08-31T03:14:33.242Z,25.87
2022-08-31T03:15:34.801Z,25.86
2022-08-31T03:16:39.045Z,25.85
2022-08-31T03:17:40.669Z,25.84
2022-08-31T03:18:43.494Z,25.83
2022-08-31T03:19:44.983Z,25.82
2022-08-31T03:20:46.895Z,25.82
2022-08-31T03:21:48.869Z,25.81
2022-08-31T03:22:59.499Z,25.80
2022-08-31T03:24:01.318Z,25.80
2022-08-31T03:25:03.062Z,25.79
2022-08-31T03:26:05.759Z,25.78
2022-08-31T03:27:07.351Z,25.79
2022-08-31T03:28:10.082Z,25.77
2022-08-31T03:29:14.904Z,25.77
2022-08-31T03:30:46.902Z,25.76
2022-08-31T03:31:48.551Z,25.76
2022-08-31T03:32:51.041Z,25.75
2022-08-31T03:33:54.028Z,25.74
2022-08-31T03:34:56.236Z,25.74
2022-08-31T03:35:57.919Z,25.73
2022-08-31T03:36:59.622Z,25.71
2022-08-31T03:38:02.604Z,25.71
2022-08-31T03:39:04.264Z,25.71
2022-08-31T03:40:06.451Z,25.71
2022-08-31T03:41:08.282Z,25.69
2022-08-31T03:42:11.032Z,25.68
2022-08-31T03:43:12.943Z,25.68
2022-08-31T03:44:16.030Z,25.67
2022-08-31T03:45:20.179Z,25.67
2022-08-31T03:46:21.911Z,25.66
2022-08-31T03:47:23.605Z,25.67
2022-08-31T03:48:29.850Z,25.66
2022-08-31T03:49:31.381Z,25.65
2022-08-31T03:50:48.527Z,25.65
2022-08-31T03:51:56.576Z,25.62
2022-08-31T03:52:59.034Z,25.61
2022-08-31T03:54:00.846Z,25.61
2022-08-31T03:55:02.487Z,25.61
2022-08-31T03:56:05.243Z,25.60
2022-08-31T03:57:09.692Z,25.60
2022-08-31T03:58:11.322Z,25.60
2022-08-31T03:59:13.164Z,25.60
2022-08-31T04:00:40.418Z,25.59
2022-08-31T04:01:53.616Z,25.58
2022-08-31T04:03:14.722Z,25.58
2022-08-31T04:04:49.522Z,25.56
2022-08-31T04:06:10.028Z,25.53
2022-08-31T04:07:38.401Z,25.53
2022-08-31T04:09:07.631Z,25.52
2022-08-31T04:10:27.503Z,25.51
2022-08-31T04:11:47.638Z,25.49
2022-08-31T04:13:07.898Z,25.49
2022-08-31T04:14:29.679Z,25.48
2022-08-31T04:15:59.340Z,25.47
2022-08-31T04:17:19.339Z,25.47
2022-08-31T04:18:25.591Z,25.46
2022-08-31T04:19:27.505Z,25.46
2022-08-31T04:20:34.915Z,25.45
2022-08-31T04:21:37.259Z,25.46
2022-08-31T04:22:38.872Z,25.45
2022-08-31T04:23:54.752Z,25.45
2022-08-31T04:24:56.491Z,25.45
2022-08-31T04:25:57.991Z,25.44
2022-08-31T04:26:59.588Z,25.44
2022-08-31T04:28:01.761Z,25.44
2022-08-31T04:29:07.695Z,25.44
2022-08-31T04:30:12.655Z,25.44
2022-08-31T04:31:15.187Z,25.44
2022-08-31T04:32:17.317Z,25.44
2022-08-31T04:33:19.085Z,25.43
2022-08-31T04:34:21.196Z,25.43
2022-08-31T04:35:22.960Z,25.43
2022-08-31T04:36:25.350Z,25.42
2022-08-31T04:37:29.409Z,25.40
2022-08-31T04:38:32.991Z,25.40
2022-08-31T04:39:34.806Z,25.39
2022-08-31T04:40:52.575Z,25.38
2022-08-31T04:41:54.132Z,25.37
2022-08-31T04:42:55.911Z,25.37
2022-08-31T04:43:59.230Z,25.36
2022-08-31T04:45:00.875Z,25.35
2022-08-31T04:46:03.526Z,25.33
2022-08-31T04:47:05.099Z,25.32
2022-08-31T04:48:06.710Z,25.31
2022-08-31T04:49:09.274Z,25.30
2022-08-31T04:50:11.319Z,25.31
2022-08-31T04:51:31.064Z,25.31
2022-08-31T04:52:32.679Z,25.30
2022-08-31T04:53:34.511Z,25.30
2022-08-31T04:54:36.015Z,25.31
2022-08-31T04:55:41.329Z,25.30
2022-08-31T04:56:44.615Z,25.31
2022-08-31T04:57:48.344Z,25.31
2022-08-31T04:58:53.261Z,25.32
2022-08-31T04:59:54.795Z,25.32
2022-08-31T05:01:36.319Z,25.33
2022-08-31T05:03:02.507Z,25.33
2022-08-31T05:04:04.479Z,25.33
2022-08-31T05:05:06.463Z,25.33
2022-08-31T05:06:11.986Z,25.33
2022-08-31T05:07:13.504Z,25.33
2022-08-31T05:08:15.197Z,25.34
2022-08-31T05:09:19.376Z,25.33
2022-08-31T05:10:24.616Z,25.33
2022-08-31T05:11:26.659Z,25.33
2022-08-31T05:12:28.193Z,25.33
2022-08-31T05:13:29.690Z,25.33
2022-08-31T05:14:31.282Z,25.32
2022-08-31T05:15:40.273Z,25.31
2022-08-31T05:16:42.219Z,25.30
2022-08-31T05:17:43.952Z,25.31
2022-08-31T05:18:46.054Z,25.30
2022-08-31T05:19:48.243Z,25.32
2022-08-31T05:20:51.406Z,25.32
2022-08-31T05:21:52.975Z,25.31
2022-08-31T05:22:58.122Z,25.32
2022-08-31T05:24:00.515Z,25.32
2022-08-31T05:25:02.134Z,25.30
2022-08-31T05:26:05.002Z,25.30
2022-08-31T05:27:06.747Z,25.31
2022-08-31T05:28:08.978Z,25.32
2022-08-31T05:29:10.712Z,25.32
2022-08-31T05:30:12.499Z,25.32
2022-08-31T05:31:23.374Z,25.32
2022-08-31T05:32:25.674Z,25.31
2022-08-31T05:33:29.867Z,25.30
2022-08-31T05:34:31.533Z,25.31
2022-08-31T05:35:34.239Z,25.29
2022-08-31T05:36:35.965Z,25.29
2022-08-31T05:37:39.269Z,25.29
2022-08-31T05:38:42.175Z,25.31
2022-08-31T05:39:45.236Z,25.32
2022-08-31T05:40:54.143Z,25.32
2022-08-31T05:41:55.752Z,25.32
2022-08-31T05:42:59.525Z,25.32
2022-08-31T05:44:02.103Z,25.32
2022-08-31T05:45:04.725Z,25.32
2022-08-31T05:46:10.342Z,25.32
2022-08-31T05:47:12.948Z,25.33
2022-08-31T05:48:14.616Z,25.33
2022-08-31T05:49:16.214Z,25.34
2022-08-31T05:50:18.664Z,25.34
2022-08-31T05:51:20.527Z,25.33
2022-08-31T05:52:25.053Z,25.34
2022-08-31T05:53:28.483Z,25.34
2022-08-31T05:54:30.058Z,25.34
2022-08-31T05:55:31.645Z,25.34
2022-08-31T05:56:33.252Z,25.34
2022-08-31T05:57:34.868Z,25.35
2022-08-31T05:58:36.685Z,25.34
2022-08-31T05:59:38.531Z,25.32
2022-08-31T06:00:40.298Z,25.33
2022-08-31T06:02:02.040Z,25.33
2022-08-31T06:03:07.742Z,25.32
2022-08-31T06:04:09.339Z,25.33
2022-08-31T06:05:11.226Z,25.35
2022-08-31T06:06:13.387Z,25.34
2022-08-31T06:07:14.910Z,25.34
2022-08-31T06:08:21.603Z,25.33
2022-08-31T06:09:29.770Z,25.35
2022-08-31T06:10:32.457Z,25.34
2022-08-31T06:11:34.843Z,25.34
2022-08-31T06:12:39.028Z,25.36
2022-08-31T06:13:40.773Z,25.37
2022-08-31T06:14:45.604Z,25.39
2022-08-31T06:15:48.685Z,25.39
2022-08-31T06:16:50.305Z,25.35
2022-08-31T06:17:54.384Z,25.37
2022-08-31T06:18:58.299Z,25.37
2022-08-31T06:20:00.008Z,25.39
2022-08-31T06:21:09.074Z,25.38
2022-08-31T06:22:10.817Z,25.39
2022-08-31T06:23:12.369Z,25.39
2022-08-31T06:24:20.830Z,25.39
2022-08-31T06:25:23.551Z,25.38
2022-08-31T06:26:27.488Z,25.39
2022-08-31T06:27:29.943Z,25.37
2022-08-31T06:28:32.628Z,25.38
2022-08-31T06:29:34.127Z,25.38
2022-08-31T06:30:47.788Z,25.36
2022-08-31T06:31:56.486Z,25.37
2022-08-31T06:32:58.975Z,25.37
2022-08-31T06:34:09.239Z,25.37
2022-08-31T06:35:29.020Z,25.38
2022-08-31T06:37:10.941Z,25.38
2022-08-31T06:38:26.364Z,25.37
2022-08-31T06:39:46.637Z,25.37
2022-08-31T06:41:02.690Z,25.40
2022-08-31T06:42:27.397Z,25.40
2022-08-31T06:43:37.954Z,25.40
2022-08-31T06:44:52.762Z,25.38
2022-08-31T06:45:57.824Z,25.38
2022-08-31T06:47:27.270Z,25.37
2022-08-31T06:48:28.871Z,25.38
2022-08-31T06:49:31.666Z,25.37
2022-08-31T06:50:33.256Z,25.38
2022-08-31T06:51:36.718Z,25.40
2022-08-31T06:52:39.044Z,25.41
2022-08-31T06:54:29.432Z,25.39
2022-08-31T06:55:50.171Z,25.41
2022-08-31T06:57:10.329Z,25.41
2022-08-31T06:58:41.060Z,25.41
2022-08-31T07:00:08.080Z,25.42
2022-08-31T07:01:32.589Z,25.41
2022-08-31T07:03:23.193Z,25.42
2022-08-31T07:04:26.369Z,25.40
2022-08-31T07:05:28.031Z,25.40
2022-08-31T07:06:40.960Z,25.37
2022-08-31T07:07:42.572Z,25.37
2022-08-31T07:08:44.895Z,25.38
2022-08-31T07:09:46.526Z,25.39
2022-08-31T07:10:48.181Z,25.39
2022-08-31T07:11:50.205Z,25.40
2022-08-31T07:12:51.714Z,25.41
2022-08-31T07:13:53.799Z,25.39
2022-08-31T07:14:55.671Z,25.40
2022-08-31T07:16:02.849Z,25.39
2022-08-31T07:17:04.509Z,25.38
2022-08-31T07:18:10.443Z,25.38
2022-08-31T07:19:12.438Z,25.39
2022-08-31T07:20:13.994Z,25.40
2022-08-31T07:21:16.582Z,25.34
2022-08-31T07:22:18.164Z,25.34
2022-08-31T07:23:22.839Z,25.34
2022-08-31T07:24:33.193Z,25.37
2022-08-31T07:25:36.490Z,25.34
2022-08-31T07:26:39.291Z,25.35
2022-08-31T07:27:40.966Z,25.35
2022-08-31T07:28:43.315Z,25.36
2022-08-31T07:29:46.380Z,25.36
2022-08-31T07:30:50.199Z,25.37
2022-08-31T07:31:53.064Z,25.38
2022-08-31T07:32:56.340Z,25.36
2022-08-31T07:33:59.072Z,25.35
2022-08-31T07:35:01.800Z,25.35
2022-08-31T07:36:06.698Z,25.36
2022-08-31T07:37:40.022Z,25.36
2022-08-31T07:39:01.256Z,25.37
2022-08-31T07:40:21.905Z,25.39
2022-08-31T07:41:47.591Z,25.37
2022-08-31T07:42:49.810Z,25.37
2022-08-31T07:43:52.447Z,25.37
2022-08-31T07:44:54.811Z,25.39
2022-08-31T07:45:57.000Z,25.35
2022-08-31T07:47:00.727Z,25.35
2022-08-31T07:48:02.334Z,25.35
2022-08-31T07:49:15.651Z,25.37
2022-08-31T07:50:38.203Z,25.35
2022-08-31T07:52:16.167Z,25.34
2022-08-31T07:53:42.131Z,25.32
2022-08-31T07:55:04.973Z,25.32
2022-08-31T07:56:21.783Z,25.30
2022-08-31T07:57:30.093Z,25.30
2022-08-31T07:58:34.978Z,25.29
2022-08-31T07:59:39.222Z,25.25
2022-08-31T08:00:43.146Z,25.23
2022-08-31T08:01:45.119Z,25.23
2022-08-31T08:02:52.753Z,25.22
2022-08-31T08:03:57.043Z,25.21
2022-08-31T08:05:21.053Z,25.20
2022-08-31T08:06:50.098Z,25.17
2022-08-31T08:08:22.834Z,25.17
2022-08-31T08:09:42.913Z,25.16
2022-08-31T08:11:21.030Z,25.15
2022-08-31T08:12:57.126Z,25.13
2022-08-31T08:14:18.923Z,25.11
2022-08-31T08:15:35.422Z,25.10
2022-08-31T08:17:04.011Z,25.09
2022-08-31T08:18:13.414Z,25.07
2022-08-31T08:19:21.939Z,25.06
2022-08-31T08:20:37.532Z,25.04
2022-08-31T08:21:41.311Z,25.05
2022-08-31T08:22:53.982Z,25.04
2022-08-31T08:24:05.651Z,25.05
2022-08-31T08:25:26.615Z,25.03
2022-08-31T08:26:53.480Z,25.02
2022-08-31T08:28:41.382Z,25.01
2022-08-31T08:29:39.541Z,25.02
2022-08-31T08:30:43.971Z,25.03
2022-08-31T08:31:56.030Z,25.03
2022-08-31T08:33:03.819Z,25.02
2022-08-31T08:34:08.209Z,25.02
2022-08-31T08:35:10.962Z,25.03
2022-08-31T08:36:18.278Z,25.02
2022-08-31T08:37:31.223Z,25.00
2022-08-31T08:38:46.151Z,25.00
2022-08-31T08:39:49.063Z,25.00
2022-08-31T08:40:56.061Z,24.97
2022-08-31T08:42:00.110Z,24.93
2022-08-31T08:43:02.344Z,24.91
2022-08-31T08:44:04.742Z,24.90
2022-08-31T08:45:08.591Z,24.91
2022-08-31T08:46:31.263Z,24.91
2022-08-31T08:47:38.611Z,24.91
2022-08-31T08:48:42.304Z,24.91
2022-08-31T08:49:49.835Z,24.91
2022-08-31T08:50:54.155Z,24.92
2022-08-31T08:52:07.538Z,24.90
2022-08-31T08:53:10.782Z,24.89
2022-08-31T08:54:19.064Z,24.89
2022-08-31T08:55:22.975Z,24.89
2022-08-31T08:56:33.378Z,24.89
2022-08-31T08:57:39.127Z,24.91
2022-08-31T08:58:42.781Z,24.90
2022-08-31T08:59:45.254Z,24.89
2022-08-31T09:00:48.245Z,24.88
2022-08-31T09:01:50.979Z,24.88
2022-08-31T09:02:58.386Z,24.88
2022-08-31T09:04:32.695Z,24.87
2022-08-31T09:05:43.354Z,24.87
2022-08-31T09:06:59.767Z,24.85
2022-08-31T09:08:16.229Z,24.84
2022-08-31T09:09:34.745Z,24.83
2022-08-31T09:10:46.148Z,24.81
2022-08-31T09:11:57.871Z,24.82
2022-08-31T09:12:59.960Z,24.82
2022-08-31T09:14:25.468Z,24.81
2022-08-31T09:15:38.849Z,24.79
2022-08-31T09:16:48.069Z,24.77
2022-08-31T09:18:07.985Z,24.78
2022-08-31T09:19:13.175Z,24.78
2022-08-31T09:20:16.570Z,24.78
2022-08-31T09:21:22.694Z,24.78
2022-08-31T09:22:28.245Z,24.79
2022-08-31T09:23:30.823Z,24.78
2022-08-31T09:24:32.511Z,24.76
2022-08-31T09:26:15.556Z,24.77
2022-08-31T09:27:45.816Z,24.78
2022-08-31T09:28:48.608Z,24.79
2022-08-31T09:29:54.116Z,24.80
2022-08-31T09:30:56.082Z,24.79
2022-08-31T09:32:05.989Z,24.81
2022-08-31T09:33:08.035Z,24.80
2022-08-31T09:34:12.536Z,24.78
2022-08-31T09:35:23.774Z,24.78
2022-08-31T09:36:27.692Z,24.77
2022-08-31T09:37:33.593Z,24.78
2022-08-31T09:38:39.467Z,24.78
2022-08-31T09:39:40.988Z,24.78
2022-08-31T09:40:45.200Z,24.77
2022-08-31T09:41:48.793Z,24.76
2022-08-31T09:43:24.969Z,24.76
2022-08-31T09:44:34.382Z,24.73
2022-08-31T09:45:41.263Z,24.73
2022-08-31T09:46:47.709Z,24.75
2022-08-31T09:47:52.078Z,24.75
2022-08-31T09:48:56.822Z,24.74
2022-08-31T09:49:58.400Z,24.74
2022-08-31T09:51:03.531Z,24.74
2022-08-31T09:52:20.136Z,24.75
2022-08-31T09:53:41.384Z,24.75
2022-08-31T09:55:01.704Z,24.75
2022-08-31T09:56:16.954Z,24.75
2022-08-31T09:57:18.584Z,24.72
2022-08-31T09:58:28.170Z,24.70
2022-08-31T09:59:37.608Z,24.70
2022-08-31T10:00:41.394Z,24.68
2022-08-31T10:01:44.284Z,24.65
2022-08-31T10:02:46.177Z,24.66
2022-08-31T10:03:47.849Z,24.62
2022-08-31T10:04:51.186Z,24.62
2022-08-31T10:05:54.591Z,24.58
2022-08-31T10:07:15.114Z,24.59
2022-08-31T10:08:28.835Z,24.55
2022-08-31T10:09:30.543Z,24.47
2022-08-31T10:10:33.056Z,24.55
2022-08-31T10:11:35.242Z,24.55
2022-08-31T10:12:53.860Z,24.56
2022-08-31T10:14:03.543Z,24.56
2022-08-31T10:15:05.922Z,24.57
2022-08-31T10:16:14.431Z,24.55
2022-08-31T10:17:16.655Z,24.55
2022-08-31T10:18:18.147Z,24.55
2022-08-31T10:19:21.199Z,24.56
2022-08-31T10:20:26.254Z,24.56
2022-08-31T10:21:44.061Z,24.57
2022-08-31T10:22:47.083Z,24.57
2022-08-31T10:23:57.239Z,24.56
2022-08-31T10:25:04.630Z,24.55
2022-08-31T10:26:13.416Z,24.54
2022-08-31T10:27:16.787Z,24.55
2022-08-31T10:28:24.429Z,24.56
2022-08-31T10:29:31.903Z,24.58
2022-08-31T10:30:47.891Z,24.58
2022-08-31T10:31:49.646Z,24.59
2022-08-31T10:32:53.775Z,24.59
2022-08-31T10:34:21.058Z,24.62
2022-08-31T10:35:24.064Z,24.60
2022-08-31T10:36:36.493Z,24.60
2022-08-31T10:37:43.555Z,24.61
2022-08-31T10:38:46.164Z,24.64
2022-08-31T10:39:48.605Z,24.64
2022-08-31T10:40:51.718Z,24.65
2022-08-31T10:41:53.278Z,24.64
2022-08-31T10:43:17.661Z,24.64
2022-08-31T10:44:26.783Z,24.63
2022-08-31T10:45:29.579Z,24.61
2022-08-31T10:46:33.281Z,24.60
2022-08-31T10:47:41.439Z,24.59
2022-08-31T10:48:47.903Z,24.60
2022-08-31T10:49:55.744Z,24.60
2022-08-31T10:51:00.077Z,24.60
2022-08-31T10:52:09.188Z,24.62
2022-08-31T10:53:13.611Z,24.62
2022-08-31T10:54:24.676Z,24.63
2022-08-31T10:55:30.786Z,24.64
2022-08-31T10:56:39.905Z,24.65
2022-08-31T10:57:51.190Z,24.66
2022-08-31T10:58:55.947Z,24.67
2022-08-31T10:59:57.444Z,24.67
2022-08-31T11:00:59.013Z,24.68
2022-08-31T11:02:19.047Z,24.69
2022-08-31T11:03:27.217Z,24.70
2022-08-31T11:04:37.923Z,24.70
2022-08-31T11:06:05.851Z,24.71
2022-08-31T11:07:12.246Z,24.71
2022-08-31T11:08:25.735Z,24.71
2022-08-31T11:09:49.540Z,24.71
2022-08-31T11:10:54.368Z,24.74
2022-08-31T11:12:04.945Z,24.73
2022-08-31T11:13:09.139Z,24.71
2022-08-31T11:14:26.999Z,24.72
2022-08-31T11:15:47.967Z,24.72
2022-08-31T11:17:02.211Z,24.72
2022-08-31T11:18:36.242Z,24.72
2022-08-31T11:19:56.494Z,24.72
2022-08-31T11:21:17.262Z,24.71
2022-08-31T11:22:29.543Z,24.71
2022-08-31T11:23:45.063Z,24.70
2022-08-31T11:24:56.090Z,24.71
2022-08-31T11:26:16.376Z,24.72
2022-08-31T11:27:24.380Z,24.70
2022-08-31T11:28:32.142Z,24.72
2022-08-31T11:29:34.465Z,24.73
2022-08-31T11:30:41.859Z,24.73
2022-08-31T11:31:43.801Z,24.73
2022-08-31T11:32:50.863Z,24.74
2022-08-31T11:34:15.195Z,24.74
2022-08-31T11:35:42.159Z,24.75
2022-08-31T11:36:51.686Z,24.74
2022-08-31T11:37:54.648Z,24.76
2022-08-31T11:39:03.483Z,24.77
2022-08-31T11:40:07.811Z,24.79
2022-08-31T11:41:14.024Z,24.80
2022-08-31T11:42:27.652Z,24.80
2022-08-31T11:43:32.186Z,24.81
2022-08-31T11:44:37.135Z,24.83
2022-08-31T11:45:38.734Z,24.83
2022-08-31T11:46:41.194Z,24.84
2022-08-31T11:47:43.281Z,24.84
2022-08-31T11:48:54.888Z,24.85
2022-08-31T11:49:57.107Z,24.86
2022-08-31T11:51:03.423Z,24.85
2022-08-31T11:52:10.294Z,24.86
2022-08-31T11:53:31.835Z,24.87
2022-08-31T11:54:53.349Z,24.87
2022-08-31T11:55:55.683Z,24.87
2022-08-31T11:56:57.280Z,24.87
2022-08-31T11:58:09.983Z,24.88
2022-08-31T11:59:18.514Z,24.88
2022-08-31T12:00:20.286Z,24.89
2022-08-31T12:01:30.726Z,24.87
2022-08-31T12:02:34.560Z,24.87
2022-08-31T12:03:37.124Z,24.88
2022-08-31T12:04:46.142Z,24.86
2022-08-31T12:05:57.977Z,24.87
2022-08-31T12:07:00.327Z,24.86
2022-08-31T12:08:03.062Z,24.86
2022-08-31T12:09:22.960Z,24.85
2022-08-31T12:10:27.551Z,24.85
2022-08-31T12:11:32.954Z,24.86
2022-08-31T12:12:43.123Z,24.86
2022-08-31T12:13:49.690Z,24.87
2022-08-31T12:15:10.007Z,24.86
2022-08-31T12:16:27.885Z,24.88
2022-08-31T12:17:31.348Z,24.88
2022-08-31T12:18:51.595Z,24.88
2022-08-31T12:20:02.649Z,24.89
2022-08-31T12:21:23.151Z,24.88
2022-08-31T12:23:02.136Z,24.88
2022-08-31T12:24:03.719Z,24.86
2022-08-31T12:25:11.575Z,24.79
2022-08-31T12:26:33.189Z,24.87
2022-08-31T12:27:46.273Z,24.87
2022-08-31T12:29:06.183Z,24.88
2022-08-31T12:30:26.403Z,24.89
2022-08-31T12:31:28.338Z,24.89
2022-08-31T12:32:33.435Z,24.89
2022-08-31T12:33:34.944Z,24.90
2022-08-31T12:34:42.849Z,24.90
2022-08-31T12:35:46.307Z,24.90
2022-08-31T12:36:49.878Z,24.91
2022-08-31T12:37:59.239Z,24.91
2022-08-31T12:39:05.084Z,24.93
2022-08-31T12:40:06.913Z,24.93
2022-08-31T12:41:11.807Z,24.93
2022-08-31T12:42:13.303Z,24.94
2022-08-31T12:43:22.488Z,24.95
2022-08-31T12:44:33.841Z,24.98
2022-08-31T12:45:41.710Z,24.98
2022-08-31T12:46:46.084Z,25.00
2022-08-31T12:48:00.943Z,25.01
2022-08-31T12:49:09.350Z,25.02
2022-08-31T12:50:18.035Z,25.03
2022-08-31T12:51:22.770Z,25.06
2022-08-31T12:52:24.228Z,25.07
2022-08-31T12:53:35.175Z,25.09
2022-08-31T12:54:42.543Z,25.10
2022-08-31T12:56:07.468Z,25.11
2022-08-31T12:57:12.575Z,25.11
2022-08-31T12:58:24.080Z,25.13
2022-08-31T13:00:00.452Z,25.14
2022-08-31T13:01:11.890Z,25.15
2022-08-31T13:02:13.667Z,25.17
2022-08-31T13:03:18.379Z,25.18
2022-08-31T13:04:22.679Z,25.20
2022-08-31T13:05:24.167Z,25.21
2022-08-31T13:06:27.103Z,25.22
2022-08-31T13:07:32.745Z,25.22
2022-08-31T13:08:35.567Z,25.24
2022-08-31T13:09:38.119Z,25.24
2022-08-31T13:10:39.806Z,25.25
2022-08-31T13:11:44.229Z,25.25
2022-08-31T13:12:52.645Z,25.27
2022-08-31T13:13:55.121Z,25.28
2022-08-31T13:14:56.627Z,25.28
2022-08-31T13:15:59.130Z,25.29
2022-08-31T13:17:04.574Z,25.31
2022-08-31T13:18:09.759Z,25.32
2022-08-31T13:19:16.847Z,25.34
2022-08-31T13:20:18.687Z,25.36
2022-08-31T13:21:21.893Z,25.37
2022-08-31T13:22:34.039Z,25.38
2022-08-31T13:23:38.776Z,25.40
2022-08-31T13:24:41.364Z,25.41
2022-08-31T13:25:43.121Z,25.41
2022-08-31T13:26:45.557Z,25.43
2022-08-31T13:27:48.408Z,25.45
2022-08-31T13:28:51.121Z,25.45
2022-08-31T13:29:53.494Z,25.45
2022-08-31T13:31:01.482Z,25.47
2022-08-31T13:32:04.754Z,25.48
2022-08-31T13:33:22.147Z,25.50
2022-08-31T13:34:24.906Z,25.53
2022-08-31T13:35:35.666Z,25.53
2022-08-31T13:36:44.054Z,25.54
2022-08-31T13:38:06.015Z,25.56
2022-08-31T13:39:23.110Z,25.58
2022-08-31T13:40:24.813Z,25.59
2022-08-31T13:41:35.914Z,25.61
2022-08-31T13:42:45.495Z,25.62
2022-08-31T13:43:47.979Z,25.63
2022-08-31T13:44:56.683Z,25.65
2022-08-31T13:45:58.559Z,25.67
2022-08-31T13:47:02.025Z,25.67
2022-08-31T13:48:10.434Z,25.67
2022-08-31T13:49:29.629Z,25.69
2022-08-31T13:50:52.950Z,25.72
2022-08-31T13:51:54.874Z,25.74
2022-08-31T13:54:27.303Z,25.79
2022-08-31T13:55:38.726Z,25.83
2022-08-31T13:56:55.707Z,25.87
2022-08-31T13:57:59.694Z,25.91
2022-08-31T13:59:15.192Z,25.96
2022-08-31T14:00:31.886Z,26.01
2022-08-31T14:01:38.425Z,26.08
2022-08-31T14:02:40.042Z,26.10
2022-08-31T14:03:58.127Z,26.13
2022-08-31T14:05:01.046Z,26.18
2022-08-31T14:06:16.647Z,26.20
2022-08-31T14:07:28.931Z,26.26
2022-08-31T14:08:30.408Z,26.27
2022-08-31T14:09:31.930Z,26.29
2022-08-31T14:10:35.115Z,26.30
2022-08-31T14:11:36.596Z,26.32
2022-08-31T14:12:50.522Z,26.33
2022-08-31T14:13:52.699Z,26.34
2022-08-31T14:14:55.373Z,26.35
2022-08-31T14:16:02.053Z,26.37
2022-08-31T14:17:03.760Z,26.38
2022-08-31T14:18:25.818Z,26.37
2022-08-31T14:19:31.491Z,26.38
2022-08-31T14:20:38.988Z,26.37
2022-08-31T14:21:42.168Z,26.37
2022-08-31T14:22:45.309Z,26.37
2022-08-31T14:23:50.083Z,26.37
2022-08-31T14:24:51.814Z,26.37
2022-08-31T14:25:53.288Z,26.38
2022-08-31T14:26:54.857Z,26.38